Time;durP1;ratioP1;P1;durP2;ratioP2;P2;SDS_P1;SDS_P2;PMS_P1;PMS_P2;Temp;Humidity;BMP_temperature;BMP_pressure;BME280_temperature;BME280_humidity;BME280_pressure;Samples;Min_cycle;Max_cycle;Signal;HPM_P1;HPM_P2
2021/12/15 00:01:41;;;;;;;43.90;14.10;;;;;;;2.28;100.00;96675.16;5006469;28;20057;-79
2021/12/15 00:04:07;;;;;;;41.15;13.20;;;;;;;2.36;100.00;96682.03;5007224;28;20536;-78
2021/12/15 00:06:33;;;;;;;43.75;14.55;;;;;;;2.33;100.00;96682.38;5002755;28;20223;-75
2021/12/15 00:09:01;;;;;;;41.10;13.32;;;;;;;2.37;100.00;96694.00;5012939;28;20427;-77
2021/12/15 00:11:36;;;;;;;44.15;13.93;;;;;;;2.34;100.00;96694.38;5011570;28;20197;-77
2021/12/15 00:14:09;;;;;;;38.28;12.77;;;;;;;2.35;100.00;96691.59;4992717;28;20069;-77
2021/12/15 00:16:35;;;;;;;41.40;12.57;;;;;;;2.30;100.00;96686.19;5005297;28;20108;-77
2021/12/15 00:19:02;;;;;;;35.63;12.30;;;;;;;2.45;100.00;96695.69;4994227;28;20037;-77
2021/12/15 00:21:28;;;;;;;36.13;13.15;;;;;;;2.40;100.00;96698.84;4986443;28;20050;-77
2021/12/15 00:23:54;;;;;;;36.83;12.93;;;;;;;2.30;100.00;96693.16;4992663;28;20042;-77
2021/12/15 00:26:20;;;;;;;36.70;13.02;;;;;;;2.32;100.00;96701.56;5009397;28;20038;-78
2021/12/15 00:28:46;;;;;;;38.65;13.40;;;;;;;2.28;100.00;96695.13;5011711;28;20041;-79
2021/12/15 00:31:13;;;;;;;37.97;13.20;;;;;;;2.30;100.00;96700.94;5002771;28;20046;-79
2021/12/15 00:33:40;;;;;;;36.80;11.77;;;;;;;2.40;100.00;96688.47;5014661;28;20045;-78
2021/12/15 00:36:06;;;;;;;41.55;13.52;;;;;;;2.47;100.00;96689.31;5012614;28;20053;-79
2021/12/15 00:38:32;;;;;;;44.72;14.90;;;;;;;2.44;100.00;96700.06;5004700;28;20042;-78
2021/12/15 00:40:57;;;;;;;38.13;12.35;;;;;;;2.39;100.00;96697.22;4975006;28;20065;-78
2021/12/15 00:43:24;;;;;;;44.40;13.90;;;;;;;2.34;100.00;96689.19;4993986;28;20420;-78
2021/12/15 00:45:49;;;;;;;43.78;13.93;;;;;;;2.37;100.00;96694.00;5011555;28;20042;-78
2021/12/15 00:48:16;;;;;;;43.30;13.75;;;;;;;2.34;100.00;96699.56;5010929;28;20038;-78
2021/12/15 00:50:44;;;;;;;40.75;13.27;;;;;;;2.48;100.00;96700.50;5030102;28;20038;-78
2021/12/15 00:53:10;;;;;;;40.75;13.75;;;;;;;2.40;100.00;96699.63;5010817;28;20045;-79
2021/12/15 00:55:37;;;;;;;37.53;13.90;;;;;;;2.45;100.00;96701.66;4985110;28;20037;-79
2021/12/15 00:58:04;;;;;;;37.60;13.88;;;;;;;2.36;100.00;96697.63;4993443;28;20049;-78
2021/12/15 01:00:38;;;;;;;41.67;13.95;;;;;;;2.34;100.00;96707.38;5011283;28;20046;-78
2021/12/15 01:03:04;;;;;;;38.25;14.18;;;;;;;2.32;100.00;96706.75;5003944;28;20462;-78
2021/12/15 01:05:35;;;;;;;40.65;13.77;;;;;;;2.29;100.00;96714.94;5011366;28;20053;-77
2021/12/15 01:08:06;;;;;;;41.78;13.60;;;;;;;2.31;100.00;96710.34;5006311;28;20042;-78
2021/12/15 01:10:56;;;;;;;37.97;14.20;;;;;;;2.33;100.00;96716.16;5029619;28;20034;-77
2021/12/15 01:21:35;;;;;;;34.10;12.48;;;;;;;2.41;100.00;96727.25;5011138;28;20038;-75
2021/12/15 01:24:01;;;;;;;38.92;12.23;;;;;;;2.69;100.00;96728.25;5024037;28;20037;-75
2021/12/15 01:26:27;;;;;;;38.20;13.52;;;;;;;2.78;100.00;96724.50;5019876;28;20064;-76
2021/12/15 01:28:52;;;;;;;35.80;12.75;;;;;;;2.77;100.00;96720.28;5011019;28;20038;-76
2021/12/15 01:31:18;;;;;;;39.50;12.15;;;;;;;2.73;100.00;96719.06;5010521;28;20050;-75
2021/12/15 01:33:44;;;;;;;39.85;13.20;;;;;;;2.82;100.00;96723.13;5007814;28;20522;-75
2021/12/15 01:36:10;;;;;;;39.72;12.27;;;;;;;2.86;100.00;96729.56;5019033;28;20526;-75
2021/12/15 01:38:39;;;;;;;37.60;12.75;;;;;;;2.73;100.00;96724.25;5007477;28;20034;-75
2021/12/15 01:41:19;;;;;;;43.05;13.75;;;;;;;2.65;100.00;96727.81;5010217;28;20049;-75
2021/12/15 01:46:53;;;;;;;40.75;13.45;;;;;;;2.70;100.00;96737.63;5013440;28;20045;-75
2021/12/15 01:46:54;;;;;;;37.85;12.90;;;;;;;2.74;100.00;96733.66;4997196;28;20532;-76
2021/12/15 01:49:39;;;;;;;40.28;13.07;;;;;;;2.70;100.00;96735.03;5024537;28;20049;-74
2021/12/15 01:52:23;;;;;;;38.35;13.65;;;;;;;2.75;100.00;96732.69;5023235;28;20034;-76
2021/12/15 01:54:53;;;;;;;45.88;14.70;;;;;;;2.65;100.00;96740.00;5003873;28;20050;-75
2021/12/15 01:57:22;;;;;;;43.67;12.98;;;;;;;2.56;100.00;96734.94;5009524;28;20041;-76
2021/12/15 01:59:50;;;;;;;38.78;12.38;;;;;;;2.60;100.00;96740.56;5002235;28;20034;-75
2021/12/15 02:02:17;;;;;;;41.90;13.57;;;;;;;2.74;100.00;96742.28;5012284;28;20096;-75
2021/12/15 02:04:44;;;;;;;37.20;12.02;;;;;;;2.72;100.00;96733.84;5000268;28;20044;-75
2021/12/15 02:07:14;;;;;;;39.92;13.55;;;;;;;2.77;100.00;96728.09;5006681;28;20957;-75
2021/12/15 02:12:15;;;;;;;41.13;13.10;;;;;;;2.77;100.00;96725.47;5009675;28;20483;-76
2021/12/15 02:14:40;;;;;;;45.28;13.50;;;;;;;2.75;100.00;96727.47;5018795;28;20491;-75
2021/12/15 02:17:06;;;;;;;47.33;14.10;;;;;;;2.72;100.00;96723.47;5009445;28;20039;-75
2021/12/15 02:19:32;;;;;;;44.38;13.82;;;;;;;2.76;100.00;96723.91;5006459;28;20042;-76
2021/12/15 02:21:59;;;;;;;43.72;13.57;;;;;;;2.80;100.00;96725.09;5009568;28;20492;-75
2021/12/15 02:24:25;;;;;;;44.10;14.00;;;;;;;2.77;100.00;96725.47;5005928;28;20042;-74
2021/12/15 02:26:57;;;;;;;38.63;12.98;;;;;;;2.77;100.00;96725.47;5008367;28;20076;-75
2021/12/15 02:29:23;;;;;;;45.63;14.32;;;;;;;2.71;100.00;96721.06;5004789;28;20043;-75
2021/12/15 02:37:17;;;;;;;43.78;13.68;;;;;;;2.59;100.00;96718.97;5019855;28;20045;-75
2021/12/15 02:39:55;;;;;;;45.25;13.75;;;;;;;2.66;100.00;96715.59;5011334;28;20050;-75
2021/12/15 02:42:38;;;;;;;45.55;14.60;;;;;;;2.64;100.00;96722.81;5008979;28;20050;-75
2021/12/15 02:45:09;;;;;;;49.05;15.25;;;;;;;2.67;100.00;96714.63;5011363;28;20115;-75
2021/12/15 02:47:34;;;;;;;50.83;14.52;;;;;;;2.67;100.00;96709.41;4985959;28;20109;-75
2021/12/15 02:50:01;;;;;;;50.17;14.80;;;;;;;2.61;100.00;96716.19;5004583;28;20715;-74
2021/12/15 02:52:27;;;;;;;49.97;13.93;;;;;;;2.59;100.00;96713.78;4992778;28;20111;-75
2021/12/15 02:54:53;;;;;;;53.35;14.23;;;;;;;2.65;100.00;96707.00;5019485;28;20049;-75
2021/12/15 02:57:19;;;;;;;54.38;16.30;;;;;;;2.67;100.00;96705.03;5010863;28;20527;-75
2021/12/15 02:59:55;;;;;;;57.95;14.93;;;;;;;2.60;100.00;96715.38;5009003;28;20042;-75
2021/12/15 03:02:56;;;;;;;60.13;15.18;;;;;;;2.57;100.00;96718.38;5001744;28;20049;-75
2021/12/15 03:05:22;;;;;;;53.15;14.57;;;;;;;2.55;100.00;96712.53;5007159;28;20674;-76
2021/12/15 03:16:03;;;;;;;65.25;15.38;;;;;;;2.50;100.00;96714.91;5013550;28;20053;-75
2021/12/15 03:18:29;;;;;;;64.85;15.00;;;;;;;2.42;100.00;96717.63;5006175;28;20045;-75
2021/12/15 03:21:06;;;;;;;72.57;15.77;;;;;;;2.43;100.00;96708.88;5008877;28;20050;-76
2021/12/15 03:23:51;;;;;;;58.13;14.95;;;;;;;2.45;100.00;96717.25;4995208;28;20050;-76
2021/12/15 03:26:21;;;;;;;68.53;15.45;;;;;;;2.54;100.00;96716.16;5001599;28;20043;-75
2021/12/15 03:39:24;;;;;;;74.10;15.02;;;;;;;2.52;100.00;96707.72;4989176;28;20038;-77
2021/12/15 03:41:58;;;;;;;69.32;15.15;;;;;;;2.43;100.00;96714.06;4996071;28;20428;-78
2021/12/15 03:44:24;;;;;;;78.43;14.73;;;;;;;2.51;100.00;96720.91;5001979;28;20042;-79
2021/12/15 03:46:50;;;;;;;68.22;14.90;;;;;;;2.40;100.00;96714.44;5010715;28;20107;-78
2021/12/15 03:49:16;;;;;;;72.47;14.50;;;;;;;2.34;100.00;96725.56;5008236;28;20046;-77
2021/12/15 03:51:41;;;;;;;57.65;13.05;;;;;;;2.28;100.00;96726.31;5008070;28;20132;-77
2021/12/15 03:54:07;;;;;;;66.07;15.52;;;;;;;2.40;100.00;96735.22;5003195;28;20565;-78
2021/12/15 03:56:36;;;;;;;59.30;14.10;;;;;;;2.49;100.00;96723.69;5006513;28;20116;-78
2021/12/15 03:59:03;;;;;;;60.13;14.27;;;;;;;2.48;100.00;96722.06;4996568;28;20029;-78
2021/12/15 04:01:29;;;;;;;64.70;15.15;;;;;;;2.53;100.00;96724.94;4987165;28;20069;-77
2021/12/15 04:03:55;;;;;;;64.18;14.80;;;;;;;2.49;100.00;96731.50;5004422;28;20488;-78
2021/12/15 04:06:34;;;;;;;54.17;14.10;;;;;;;2.32;100.00;96727.56;5018146;28;20041;-77
2021/12/15 04:09:01;;;;;;;64.28;14.77;;;;;;;2.16;100.00;96734.59;5005194;28;20076;-76
2021/12/15 04:11:33;;;;;;;67.18;14.85;;;;;;;2.13;100.00;96734.19;5008467;28;20049;-76
2021/12/15 04:14:00;;;;;;;70.07;14.43;;;;;;;2.04;100.00;96736.06;4995807;28;20041;-74
2021/12/15 04:18:54;;;;;;;86.97;16.48;;;;;;;1.97;100.00;96730.00;5023104;28;20061;-74
2021/12/15 04:21:20;;;;;;;80.70;16.17;;;;;;;1.93;100.00;96739.16;5011768;28;20042;-76
2021/12/15 04:23:50;;;;;;;66.78;16.83;;;;;;;1.89;100.00;96744.72;4989723;28;20534;-76
2021/12/15 04:26:16;;;;;;;60.15;15.00;;;;;;;1.94;100.00;96745.94;5017062;28;20037;-76
2021/12/15 04:28:42;;;;;;;60.03;15.65;;;;;;;1.90;100.00;96741.13;5017227;28;20038;-76
2021/12/15 04:31:12;;;;;;;55.72;15.02;;;;;;;1.98;100.00;96744.59;5013598;28;20526;-76
2021/12/15 04:33:50;;;;;;;49.28;14.65;;;;;;;1.92;100.00;96746.13;5007624;28;20813;-76
2021/12/15 04:36:17;;;;;;;48.80;14.32;;;;;;;1.88;100.00;96743.13;5005528;28;20034;-76
2021/12/15 04:38:45;;;;;;;50.83;14.38;;;;;;;1.94;100.00;96746.78;5005141;28;20041;-75
2021/12/15 04:41:16;;;;;;;44.90;14.73;;;;;;;2.01;100.00;96739.03;5008348;28;20476;-76
2021/12/15 04:43:42;;;;;;;44.60;13.48;;;;;;;2.13;100.00;96734.97;4999528;28;20483;-75
2021/12/15 04:46:10;;;;;;;40.28;13.82;;;;;;;2.25;100.00;96749.06;4996576;28;20050;-74
2021/12/15 04:48:38;;;;;;;39.17;13.38;;;;;;;2.31;100.00;96757.09;4991650;28;20042;-75
2021/12/15 04:51:05;;;;;;;41.47;12.95;;;;;;;2.05;100.00;96753.25;5010907;28;20038;-75
2021/12/15 04:53:31;;;;;;;36.30;12.93;;;;;;;2.02;100.00;96758.81;5012982;28;20415;-75
2021/12/15 04:55:57;;;;;;;37.65;13.52;;;;;;;2.18;100.00;96758.56;5025798;28;20048;-75
2021/12/15 04:58:22;;;;;;;33.90;12.88;;;;;;;2.28;100.00;96747.09;5009709;28;20046;-75
2021/12/15 05:00:54;;;;;;;37.80;13.15;;;;;;;2.25;100.00;96749.06;5003386;28;20041;-75
2021/12/15 05:03:20;;;;;;;39.55;13.68;;;;;;;2.32;100.00;96754.31;5007045;28;20046;-75
2021/12/15 05:05:46;;;;;;;37.63;13.30;;;;;;;2.19;100.00;96755.00;4989320;28;20041;-76
2021/12/15 05:08:12;;;;;;;40.97;13.65;;;;;;;2.03;100.00;96755.25;5006822;28;20053;-75
2021/12/15 05:10:38;;;;;;;47.85;14.93;;;;;;;1.89;100.00;96755.09;5010280;28;20061;-76
2021/12/15 05:13:05;;;;;;;37.92;14.15;;;;;;;2.04;100.00;96762.03;5010474;28;20046;-75
2021/12/15 05:15:32;;;;;;;40.80;14.25;;;;;;;2.15;100.00;96758.94;5003228;28;20072;-76
2021/12/15 05:17:57;;;;;;;45.40;15.02;;;;;;;2.19;100.00;96770.59;5008853;28;20038;-76
2021/12/15 05:20:25;;;;;;;49.47;15.15;;;;;;;1.99;100.00;96769.59;5006371;28;20836;-76
2021/12/15 05:22:51;;;;;;;52.97;15.10;;;;;;;1.90;100.00;96772.28;5006890;28;20042;-75
2021/12/15 05:25:17;;;;;;;56.15;15.70;;;;;;;1.75;100.00;96781.88;5000030;28;20049;-76
2021/12/15 05:27:43;;;;;;;52.28;16.63;;;;;;;1.78;100.00;96775.53;5007976;28;20046;-76
2021/12/15 05:30:13;;;;;;;51.28;15.82;;;;;;;1.76;100.00;96780.91;5001430;28;20056;-74
2021/12/15 05:32:39;;;;;;;55.10;16.42;;;;;;;1.92;100.00;96784.28;4993509;28;20507;-78
2021/12/15 05:35:05;;;;;;;50.72;15.13;;;;;;;2.02;100.00;96789.97;4991834;28;20086;-78
2021/12/15 05:37:31;;;;;;;53.00;15.32;;;;;;;2.17;100.00;96788.16;5008341;28;20061;-78
2021/12/15 05:39:58;;;;;;;46.20;14.75;;;;;;;2.23;100.00;96790.00;5006942;28;20168;-77
2021/12/15 05:42:25;;;;;;;45.80;14.85;;;;;;;2.21;100.00;96789.41;5008800;28;20065;-78
2021/12/15 05:44:52;;;;;;;47.10;15.07;;;;;;;2.23;100.00;96792.59;5001772;28;20041;-77
2021/12/15 05:47:20;;;;;;;44.65;14.45;;;;;;;2.20;100.00;96795.56;4998868;28;20117;-79
2021/12/15 05:49:47;;;;;;;49.03;15.32;;;;;;;2.14;100.00;96803.28;5007907;28;20488;-77
2021/12/15 05:52:13;;;;;;;46.63;15.38;;;;;;;2.02;100.00;96795.19;4989462;28;20042;-78
2021/12/15 05:54:39;;;;;;;47.35;14.65;;;;;;;2.12;100.00;96800.88;5006885;28;20056;-78
2021/12/15 05:57:05;;;;;;;44.50;14.15;;;;;;;2.00;100.00;96797.97;4998423;28;20053;-78
2021/12/15 05:59:30;;;;;;;44.13;14.00;;;;;;;2.14;100.00;96804.09;5006350;28;20576;-78
2021/12/15 06:01:56;;;;;;;37.85;13.98;;;;;;;2.17;100.00;96814.13;4997062;28;20057;-77
2021/12/15 06:04:22;;;;;;;41.65;14.10;;;;;;;2.07;100.00;96813.63;4995518;28;20043;-78
2021/12/15 06:06:48;;;;;;;44.88;13.77;;;;;;;2.05;100.00;96818.19;5004830;28;20145;-78
2021/12/15 06:09:14;;;;;;;34.88;12.80;;;;;;;2.14;100.00;96819.69;5002225;28;20050;-77
2021/12/15 06:11:42;;;;;;;36.90;12.60;;;;;;;2.19;100.00;96817.34;5007418;28;20464;-78
2021/12/15 06:14:08;;;;;;;35.50;12.82;;;;;;;2.13;100.00;96823.28;4989564;28;20415;-76
2021/12/15 06:16:34;;;;;;;35.70;12.43;;;;;;;2.11;100.00;96830.41;4984444;28;20074;-76
2021/12/15 06:19:00;;;;;;;39.33;13.63;;;;;;;2.12;100.00;96826.84;5015359;28;20088;-76
2021/12/15 06:21:26;;;;;;;32.92;13.52;;;;;;;2.00;100.00;96833.50;4992567;28;20454;-77
2021/12/15 06:23:52;;;;;;;48.33;14.32;;;;;;;2.04;100.00;96839.94;5017649;28;20112;-76
2021/12/15 06:26:18;;;;;;;40.40;15.35;;;;;;;2.14;100.00;96840.47;5017825;28;20053;-77
2021/12/15 06:28:45;;;;;;;44.90;15.45;;;;;;;2.08;100.00;96841.19;5007037;28;20089;-77
2021/12/15 06:31:13;;;;;;;45.90;15.10;;;;;;;2.02;100.00;96844.50;5009725;28;20038;-77
2021/12/15 06:33:40;;;;;;;51.30;16.88;;;;;;;1.92;100.00;96856.97;5010718;28;20049;-78
2021/12/15 06:36:08;;;;;;;51.30;15.68;;;;;;;1.84;100.00;96850.06;5006233;28;20038;-76
2021/12/15 06:38:39;;;;;;;53.05;17.45;;;;;;;1.89;100.00;96858.94;5004808;28;20053;-78
2021/12/15 06:41:08;;;;;;;55.60;17.38;;;;;;;1.87;100.00;96863.50;4993673;28;20042;-78
2021/12/15 06:43:35;;;;;;;47.65;15.75;;;;;;;2.00;100.00;96851.69;5023929;28;20495;-78
2021/12/15 06:59:24;;;;;;;51.92;16.58;;;;;;;2.21;100.00;96871.69;5020044;28;20045;-78
2021/12/15 07:01:51;;;;;;;51.13;16.20;;;;;;;2.20;100.00;96870.09;5006325;28;20045;-77
2021/12/15 07:04:18;;;;;;;48.42;16.85;;;;;;;2.06;100.00;96879.53;5021538;28;20076;-77
2021/12/15 07:06:44;;;;;;;55.88;17.60;;;;;;;2.04;100.00;96886.66;5011125;28;20048;-78
2021/12/15 07:09:10;;;;;;;50.55;15.55;;;;;;;2.14;100.00;96881.19;4998910;28;20391;-78
2021/12/15 07:11:36;;;;;;;52.60;16.15;;;;;;;2.22;100.00;96879.31;5012557;28;20038;-77
2021/12/15 07:14:01;;;;;;;51.72;15.18;;;;;;;2.18;100.00;96882.44;5009829;28;20470;-78
2021/12/15 07:16:30;;;;;;;47.78;15.30;;;;;;;2.11;100.00;96887.56;5007973;28;20053;-77
2021/12/15 07:22:16;;;;;;;51.95;13.95;;;;;;;2.30;100.00;96880.19;4992327;28;20057;-77
2021/12/15 07:24:39;;;;;;;66.43;15.77;;;;;;;2.19;100.00;96879.66;5000965;28;20074;-78
2021/12/15 07:27:06;;;;;;;54.17;14.50;;;;;;;2.41;100.00;96877.09;5011865;28;20068;-78
2021/12/15 07:29:33;;;;;;;57.13;16.08;;;;;;;2.37;100.00;96881.06;5007990;28;20045;-77
2021/12/15 07:31:59;;;;;;;58.25;14.52;;;;;;;2.27;100.00;96885.75;5017095;28;20442;-79
2021/12/15 07:34:24;;;;;;;50.53;13.85;;;;;;;2.28;100.00;96885.56;4991842;28;20228;-78
2021/12/15 07:36:50;;;;;;;64.97;15.35;;;;;;;2.09;100.00;96889.53;5010100;28;20050;-78
2021/12/15 07:39:17;;;;;;;54.33;13.00;;;;;;;2.24;100.00;96886.91;5016003;28;20639;-79
2021/12/15 07:41:52;;;;;;;65.07;13.25;;;;;;;2.34;100.00;96886.63;4989074;28;20112;-78
2021/12/15 07:44:20;;;;;;;57.67;13.07;;;;;;;2.39;100.00;96889.50;4994392;28;20045;-79
2021/12/15 07:46:49;;;;;;;61.13;14.35;;;;;;;2.20;100.00;96896.88;4990471;28;20038;-79
2021/12/15 07:49:14;;;;;;;72.38;14.68;;;;;;;2.14;100.00;96908.00;5017389;28;20053;-79
2021/12/15 07:51:43;;;;;;;56.20;12.65;;;;;;;2.31;100.00;96912.97;5015489;28;20037;-78
2021/12/15 07:54:10;;;;;;;58.55;13.52;;;;;;;2.46;100.00;96905.13;5009014;28;20050;-78
2021/12/15 07:56:36;;;;;;;50.33;12.35;;;;;;;2.35;100.00;96909.81;5011957;28;20065;-79
2021/12/15 07:59:02;;;;;;;64.30;13.93;;;;;;;2.42;100.00;96905.50;4995929;28;20487;-79
2021/12/15 08:01:29;;;;;;;57.45;13.00;;;;;;;2.52;100.00;96920.00;5013367;28;20077;-79
2021/12/15 08:03:55;;;;;;;63.97;13.60;;;;;;;2.39;100.00;96925.88;5016517;28;20045;-80
2021/12/15 08:06:22;;;;;;;59.65;13.43;;;;;;;2.32;100.00;96927.59;4991814;28;20579;-81
2021/12/15 08:08:48;;;;;;;57.92;13.95;;;;;;;2.15;100.00;96925.16;4989822;28;20041;-79
2021/12/15 08:11:14;;;;;;;67.88;13.07;;;;;;;2.23;100.00;96927.66;5019023;28;20049;-78
2021/12/15 08:13:40;;;;;;;66.50;13.40;;;;;;;2.26;100.00;96942.09;5017715;28;20103;-80
2021/12/15 08:16:06;;;;;;;60.45;13.57;;;;;;;2.38;100.00;96937.25;4994456;28;20038;-77
2021/12/15 08:18:32;;;;;;;65.70;14.43;;;;;;;2.24;100.00;96934.50;5004063;28;20058;-77
2021/12/15 08:20:58;;;;;;;56.78;13.95;;;;;;;2.28;100.00;96934.13;5009148;28;20044;-78
2021/12/15 08:23:24;;;;;;;58.08;13.80;;;;;;;2.49;100.00;96931.56;4988096;28;20050;-78
2021/12/15 08:25:51;;;;;;;63.20;15.27;;;;;;;2.43;100.00;96937.50;5009252;28;20554;-78
2021/12/15 08:28:17;;;;;;;58.03;14.95;;;;;;;2.37;100.00;96933.03;5006951;28;20082;-77
2021/12/15 08:30:46;;;;;;;53.72;13.20;;;;;;;2.54;100.00;96934.44;5000962;28;20041;-78
2021/12/15 08:33:17;;;;;;;63.38;14.52;;;;;;;2.36;100.00;96936.63;5000231;28;20060;-77
2021/12/15 08:35:49;;;;;;;61.88;14.65;;;;;;;2.23;100.00;96932.06;4992150;28;20042;-80
2021/12/15 08:38:16;;;;;;;66.32;15.15;;;;;;;2.28;100.00;96936.72;5005036;28;20061;-77
2021/12/15 08:40:43;;;;;;;57.40;13.60;;;;;;;2.43;100.00;96937.50;5010525;28;20041;-78
2021/12/15 08:43:10;;;;;;;57.78;13.52;;;;;;;2.53;100.00;96932.81;5018315;28;20132;-79
2021/12/15 08:45:38;;;;;;;57.72;13.93;;;;;;;2.37;100.00;96940.81;5014298;28;20041;-78
2021/12/15 08:48:05;;;;;;;54.42;13.50;;;;;;;2.54;100.00;96933.63;5010468;28;20512;-78
2021/12/15 08:50:34;;;;;;;48.78;13.35;;;;;;;2.75;100.00;96930.25;5011404;28;20037;-78
2021/12/15 08:53:01;;;;;;;48.78;13.10;;;;;;;2.64;100.00;96933.31;4999094;28;20052;-78
2021/12/15 08:55:27;;;;;;;41.45;12.88;;;;;;;2.69;100.00;96925.78;5017292;28;20042;-78
2021/12/15 08:57:56;;;;;;;46.80;13.43;;;;;;;2.75;100.00;96930.25;5015595;28;20044;-79
2021/12/15 09:00:24;;;;;;;44.95;13.02;;;;;;;2.83;100.00;96932.75;5016522;28;20049;-78
2021/12/15 09:02:51;;;;;;;47.65;13.82;;;;;;;2.96;100.00;96939.88;5030151;28;20066;-78
2021/12/15 09:05:20;;;;;;;51.05;13.90;;;;;;;2.98;100.00;96939.69;5014357;28;20053;-78
2021/12/15 09:07:55;;;;;;;58.58;14.38;;;;;;;2.72;100.00;96947.00;4994249;28;20049;-78
2021/12/15 09:10:24;;;;;;;61.25;15.20;;;;;;;2.86;100.00;96937.56;5011897;28;20061;-78
2021/12/15 09:12:50;;;;;;;57.05;14.57;;;;;;;2.79;100.00;96947.09;4996891;28;20587;-78
2021/12/15 09:15:17;;;;;;;54.75;15.00;;;;;;;2.76;100.00;96947.47;5026743;28;20041;-78
2021/12/15 09:17:42;;;;;;;54.70;14.93;;;;;;;2.81;100.00;96937.31;5001964;28;20042;-78
2021/12/15 09:20:13;;;;;;;57.60;14.95;;;;;;;2.88;100.00;96939.97;5021892;28;20459;-78
2021/12/15 09:22:39;;;;;;;45.47;13.00;;;;;;;2.86;100.00;96937.56;5014609;28;20133;-78
2021/12/15 09:25:11;;;;;;;46.60;13.77;;;;;;;2.89;100.00;96937.19;5010573;28;20104;-78
2021/12/15 09:27:38;;;;;;;51.05;14.50;;;;;;;2.79;100.00;96941.91;5024919;28;20038;-78
2021/12/15 09:30:06;;;;;;;41.38;13.40;;;;;;;2.78;100.00;96940.28;5013845;28;20041;-78
2021/12/15 09:32:31;;;;;;;46.83;14.30;;;;;;;2.99;100.00;96936.91;5014360;28;20431;-78
2021/12/15 09:34:57;;;;;;;46.50;13.07;;;;;;;3.19;100.00;96934.47;5009983;28;20045;-78
2021/12/15 09:37:23;;;;;;;41.47;14.25;;;;;;;3.25;100.00;96935.53;5010114;28;20672;-78
2021/12/15 09:39:49;;;;;;;45.20;13.05;;;;;;;3.38;100.00;96930.41;5017093;28;20056;-78
2021/12/15 09:42:19;;;;;;;37.17;12.25;;;;;;;3.18;100.00;96930.25;5015230;28;20077;-78
2021/12/15 09:44:47;;;;;;;36.08;12.05;;;;;;;3.21;100.00;96940.28;5014340;28;20037;-80
2021/12/15 09:47:22;;;;;;;41.80;13.55;;;;;;;2.98;100.00;96939.69;5013753;28;20056;-78
2021/12/15 10:03:44;;;;;;;31.60;11.57;;;;;;;3.34;100.00;96931.00;5010924;28;20038;-78
2021/12/15 10:06:27;;;;;;;36.30;11.50;;;;;;;3.27;100.00;96923.91;5015391;28;20052;-78
2021/12/15 10:11:55;;;;;;;31.20;9.85;;;;;;;3.45;100.00;96930.47;5011746;28;20038;-78
2021/12/15 10:20:03;;;;;;;32.70;11.48;;;;;;;3.25;100.00;96914.72;5011803;28;20048;-78
2021/12/15 10:22:39;;;;;;;31.08;11.00;;;;;;;3.06;100.00;96926.53;4995034;28;20159;-78
2021/12/15 10:25:04;;;;;;;29.80;11.02;;;;;;;3.27;100.00;96918.72;5009739;28;20038;-79
2021/12/15 10:27:45;;;;;;;31.23;10.30;;;;;;;3.18;100.00;96914.66;5015747;28;20480;-77
2021/12/15 10:30:22;;;;;;;33.08;11.43;;;;;;;3.13;100.00;96906.59;5006065;28;20046;-78
2021/12/15 10:32:51;;;;;;;35.08;11.48;;;;;;;3.15;100.00;96909.00;5004634;28;20061;-78
2021/12/15 10:35:20;;;;;;;35.67;11.10;;;;;;;3.18;100.00;96909.44;5008884;28;20063;-77
2021/12/15 10:38:11;;;;;;;29.73;10.82;;;;;;;3.19;100.00;96908.47;4998874;28;20550;-78
2021/12/15 10:40:42;;;;;;;32.55;10.88;;;;;;;3.26;100.00;96900.69;4992983;28;20112;-77
2021/12/15 10:43:08;;;;;;;28.67;10.02;;;;;;;3.17;100.00;96907.81;4988871;28;20057;-77
2021/12/15 10:45:38;;;;;;;27.95;10.40;;;;;;;3.15;100.00;96899.41;4987309;28;20045;-78
2021/12/15 10:48:10;;;;;;;31.85;11.05;;;;;;;3.47;100.00;96905.06;5004092;28;20053;-76
2021/12/15 10:50:38;;;;;;;26.55;9.80;;;;;;;3.17;100.00;96902.63;4985435;28;20091;-78
2021/12/15 10:53:03;;;;;;;26.75;10.63;;;;;;;3.18;100.00;96904.25;5007554;28;20037;-79
2021/12/15 10:55:36;;;;;;;26.08;9.88;;;;;;;3.32;100.00;96904.34;5011573;28;20053;-79
2021/12/15 10:58:39;;;;;;;25.08;9.23;;;;;;;3.14;100.00;96903.00;5008793;28;20042;-78
2021/12/15 11:01:30;;;;;;;24.15;9.60;;;;;;;3.28;100.00;96909.91;5004447;28;20109;-79
2021/12/15 11:03:57;;;;;;;24.85;8.95;;;;;;;3.43;100.00;96906.44;5007200;28;20045;-80
2021/12/15 11:06:32;;;;;;;19.83;8.38;;;;;;;3.16;100.00;96901.03;5005598;28;20046;-77
2021/12/15 11:09:12;;;;;;;;;;;;;;;3.20;100.00;96902.25;5004280;28;20034;-78
2021/12/15 11:11:38;;;;;;;19.08;7.15;;;;;;;3.38;100.00;96898.41;4992549;28;19928;-78
2021/12/15 11:14:30;;;;;;;16.02;7.30;;;;;;;3.59;100.00;96900.13;5007264;28;20431;-79
2021/12/15 11:17:08;;;;;;;19.95;7.65;;;;;;;3.41;100.00;96905.81;4984778;28;20038;-76
2021/12/15 11:20:02;;;;;;;20.27;7.70;;;;;;;3.34;100.00;96897.16;5006473;28;20101;-76
2021/12/15 11:22:47;;;;;;;23.40;8.48;;;;;;;3.41;100.00;96888.41;5006605;28;20049;-77
2021/12/15 11:25:13;;;;;;;15.90;6.70;;;;;;;3.50;100.00;96885.66;4977571;28;20046;-77
2021/12/15 11:27:39;;;;;;;13.73;6.32;;;;;;;3.42;100.00;96878.78;4997540;28;20067;-77
2021/12/15 11:30:10;;;;;;;14.20;5.97;;;;;;;3.39;100.00;96879.16;4991034;28;20042;-77
2021/12/15 11:32:45;;;;;;;15.43;6.65;;;;;;;3.42;100.00;96874.41;5006389;28;20108;-76
2021/12/15 11:35:26;;;;;;;15.95;7.60;;;;;;;3.26;100.00;96878.09;4987162;28;20050;-77
2021/12/15 11:37:54;;;;;;;18.75;7.03;;;;;;;3.28;100.00;96888.31;5002830;28;20037;-77
2021/12/15 11:40:27;;;;;;;15.20;6.50;;;;;;;3.54;100.00;96882.47;4991637;28;20050;-77
2021/12/15 11:42:54;;;;;;;13.02;5.35;;;;;;;3.61;100.00;96878.13;5000134;28;20046;-78
2021/12/15 11:45:19;;;;;;;11.32;5.30;;;;;;;3.63;100.00;96876.16;5004939;28;20057;-77
2021/12/15 11:47:45;;;;;;;13.32;6.10;;;;;;;3.53;100.00;96875.66;5003631;28;20487;-77
2021/12/15 11:50:18;;;;;;;13.00;5.10;;;;;;;3.63;100.00;96881.34;4999959;28;20046;-77
2021/12/15 11:52:46;;;;;;;12.15;5.40;;;;;;;3.70;100.00;96880.56;5007176;28;20043;-77
2021/12/15 11:55:28;;;;;;;9.60;4.32;;;;;;;3.63;100.00;96876.16;4987001;28;20061;-79
2021/12/15 11:57:55;;;;;;;10.13;4.47;;;;;;;3.63;100.00;96876.16;5005266;28;20618;-79
2021/12/15 12:00:24;;;;;;;9.55;4.72;;;;;;;3.51;100.00;96871.66;5004265;28;20053;-79
2021/12/15 12:02:54;;;;;;;11.32;4.05;;;;;;;3.61;100.00;96867.72;5012781;28;20111;-79
2021/12/15 12:05:33;;;;;;;10.32;4.85;;;;;;;3.57;100.00;96871.69;5005741;28;20057;-79
2021/12/15 12:08:06;;;;;;;11.05;4.90;;;;;;;3.48;100.00;96867.63;5006653;28;20041;-79
2021/12/15 12:10:44;;;;;;;9.40;4.23;;;;;;;3.67;100.00;96865.34;4986862;28;20187;-77
2021/12/15 12:13:16;;;;;;;11.57;4.32;;;;;;;3.61;100.00;96862.50;5002118;28;20801;-77
2021/12/15 12:15:47;;;;;;;9.80;4.65;;;;;;;3.49;100.00;96858.81;4992564;28;20038;-77
2021/12/15 12:18:22;;;;;;;9.38;4.40;;;;;;;3.66;100.00;96853.31;5006671;28;20053;-78
2021/12/15 12:20:59;;;;;;;8.98;4.28;;;;;;;3.68;100.00;96852.13;5013268;28;20042;-79
2021/12/15 12:23:29;;;;;;;8.50;4.10;;;;;;;3.69;100.00;96853.72;4989331;28;20038;-77
2021/12/15 12:25:58;;;;;;;10.02;4.53;;;;;;;3.51;100.00;96850.84;5004392;28;20986;-79
2021/12/15 12:28:28;;;;;;;13.73;4.93;;;;;;;3.66;100.00;96850.72;5003994;28;20046;-79
2021/12/15 12:31:00;;;;;;;10.27;4.40;;;;;;;3.76;100.00;96838.13;5006927;28;20050;-79
2021/12/15 12:33:28;;;;;;;9.73;4.70;;;;;;;3.77;100.00;96839.75;4997259;28;20042;-79
2021/12/15 12:36:02;;;;;;;10.65;4.97;;;;;;;3.63;100.00;96834.50;5008644;28;20080;-78
2021/12/15 12:38:29;;;;;;;10.82;4.90;;;;;;;3.59;100.00;96838.47;5010924;28;20052;-78
2021/12/15 12:40:55;;;;;;;9.43;4.68;;;;;;;3.44;100.00;96835.16;5012115;28;20046;-78
2021/12/15 12:43:27;;;;;;;9.90;5.10;;;;;;;3.58;100.00;96836.06;5002655;28;20046;-79
2021/12/15 12:46:21;;;;;;;12.23;4.65;;;;;;;3.52;100.00;96826.41;5010208;28;20053;-80